Arctic Fury — WDE9335 — position and weather

sailwx.info

Track history (hours):
 
Tides and Currents Weather Stations Pressure Air Temp Water Temp Dewpoint Dewpoint Depression Visibility Wind Speed Wind Dir Waves Ship Positions

Arctic Fury

Owner: Fury Group Inc, Seattle, WA. More information available from US FCC via Universal Licensing System and Coast Guard Vessel Documentation Center.

Last reported at 2017-Aug-18 12:30 UTC. Time now 2017-Aug-18 12:48 UTC.
Position N 46°55' W 124°09'.

Length 43 m; draft 5 m.

Type: Fishing. MMSI: 366468000.

Date/timePositionNaut miles runAvg speedWind from/ knotsBaromVisibWave heightAir tempDewpointWater temp
2017-Aug-18 12:30N 46°55' W 124°09'2 3.6
2017-Aug-18 11:56N 46°54' W 124°06'0 0.0
2017-Aug-18 11:24N 46°54' W 124°06'0 0.0
2017-Aug-18 11:00N 46°54' W 124°06'0 0.0
2017-Aug-18 10:25N 46°54' W 124°06'0 0.0
2017-Aug-18 10:00N 46°54' W 124°06'0 0.0
2017-Aug-18 09:25N 46°54' W 124°06'0 0.0
2017-Aug-18 09:00N 46°54' W 124°06'0 0.0
2017-Aug-18 08:30N 46°54' W 124°06'0 0.0
2017-Aug-18 08:00N 46°54' W 124°06'0 0.0
2017-Aug-18 07:28N 46°54' W 124°06'0 0.0
2017-Aug-18 07:00N 46°54' W 124°06'0 0.0
2017-Aug-18 06:30N 46°54' W 124°06'0 0.0
2017-Aug-18 06:00N 46°54' W 124°06'0 0.0
2017-Aug-18 05:30N 46°54' W 124°06'0 0.0
2017-Aug-18 05:00N 46°54' W 124°06'0 0.0
2017-Aug-18 04:30N 46°54' W 124°06'0 0.0
2017-Aug-18 03:57N 46°54' W 124°06'0 0.0
2017-Aug-18 03:30N 46°54' W 124°06'0 0.0
2017-Aug-18 03:00N 46°54' W 124°06'0 0.0
2017-Aug-18 02:29N 46°54' W 124°06'0 0.0
2017-Aug-18 01:59N 46°54' W 124°06'0 0.0
2017-Aug-18 01:30N 46°54' W 124°06'0 0.0
2017-Aug-18 00:59N 46°54' W 124°06'0 0.1
2017-Aug-18 00:29N 46°54' W 124°06'0 0.0
2017-Aug-17 21:26N 46°54' W 124°06'2 3.7
2017-Aug-17 20:55N 46°55' W 124°09'2 4.6
2017-Aug-17 20:30N 46°55' W 124°06'0 0.5
2017-Aug-17 19:51N 46°54' W 124°06'0 0.0
2017-Aug-17 19:07N 46°54' W 124°06'0 0.0
2017-Aug-17 18:45N 46°54' W 124°06'0 0.0
2017-Aug-17 18:24N 46°54' W 124°06'0 0.0
2017-Aug-17 17:58N 46°54' W 124°06'0 0.0
2017-Aug-17 16:32N 46°54' W 124°06'0 0.0
2017-Aug-17 16:28N 46°54' W 124°06'0 0.0
2017-Aug-17 15:45N 46°54' W 124°06'0 0.0
2017-Aug-17 14:31N 46°54' W 124°06'0 0.0
2017-Aug-17 14:09N 46°54' W 124°06'0 0.0
2017-Aug-17 13:58N 46°54' W 124°06'0 0.0
2017-Aug-17 13:23N 46°54' W 124°06'0 0.0
2017-Aug-17 12:56N 46°54' W 124°06'0 0.0
2017-Aug-17 11:51N 46°54' W 124°06'0 0.0
2017-Aug-17 11:28N 46°54' W 124°06'0 0.0
2017-Aug-17 10:49N 46°54' W 124°06'0 0.0
2017-Aug-17 07:56N 46°54' W 124°06'2 3.4
2017-Aug-17 07:29N 46°55' W 124°09'6 7.1
2017-Aug-17 06:40N 46°51' W 124°15'1 8.9
2017-Aug-17 06:30N 46°50' W 124°16'4 8.9
2017-Aug-17 06:00N 46°46' W 124°20'5 9.3
2017-Aug-17 05:31N 46°42' W 124°24'5 9.5
2017-Aug-17 05:01N 46°39' W 124°28'4 8.5
2017-Aug-17 04:30N 46°35' W 124°31'2 3.0
2017-Aug-17 04:01N 46°34' W 124°33'1 2.7
2017-Aug-17 03:30N 46°34' W 124°35'2 3.1
2017-Aug-17 03:00N 46°34' W 124°37'2 3.4
2017-Aug-17 02:30N 46°36' W 124°38'2 3.1
2017-Aug-17 02:01N 46°37' W 124°39'2 3.3
2017-Aug-17 01:30N 46°38' W 124°41'1 2.7
2017-Aug-17 01:01N 46°39' W 124°42'5 9.5
2017-Aug-17 00:30N 46°36' W 124°38'2 4.0
2017-Aug-17 00:00N 46°34' W 124°37'1 2.7
2017-Aug-16 23:30N 46°35' W 124°37'2 3.0
2017-Aug-16 23:00N 46°37' W 124°38'2 3.1
2017-Aug-16 22:30N 46°38' W 124°40'2 3.4
2017-Aug-16 22:00N 46°39' W 124°42'1 1.3
2017-Aug-16 21:30N 46°38' W 124°41'3 5.3
2017-Aug-16 21:00N 46°38' W 124°37'5 7.1
2017-Aug-16 20:16N 46°41' W 124°31'2 9.2
2017-Aug-16 20:01N 46°42' W 124°29'5 9.4
2017-Aug-16 19:30N 46°46' W 124°24'5 9.4
2017-Aug-16 19:01N 46°49' W 124°20'510.1
2017-Aug-16 18:30N 46°53' W 124°15'510.7
2017-Aug-16 18:00N 46°55' W 124°07'1 1.3
2017-Aug-16 17:19N 46°54' W 124°06'0 0.0
2017-Aug-16 17:00N 46°54' W 124°06'0 0.0
2017-Aug-16 16:26N 46°54' W 124°06'0 0.0
2017-Aug-16 16:00N 46°54' W 124°06'0 0.0
2017-Aug-16 15:30N 46°54' W 124°06'0 0.0
2017-Aug-16 15:00N 46°54' W 124°06'0 0.0
2017-Aug-16 14:29N 46°54' W 124°06'0 0.0
2017-Aug-16 14:00N 46°54' W 124°06'0 0.0
2017-Aug-16 13:30N 46°54' W 124°06'0 0.0
2017-Aug-16 13:00N 46°54' W 124°06'0 0.0
2017-Aug-16 12:30N 46°54' W 124°06'0 0.0
2017-Aug-16 12:00N 46°54' W 124°06'0 0.0
2017-Aug-16 11:25N 46°54' W 124°06'0 0.0
2017-Aug-16 10:56N 46°54' W 124°06'0 0.0
2017-Aug-16 10:07N 46°54' W 124°06'0 0.0
2017-Aug-16 09:56N 46°54' W 124°06'0 0.0
2017-Aug-16 09:30N 46°54' W 124°06'0 0.0
2017-Aug-16 08:59N 46°54' W 124°06'0 0.0
2017-Aug-16 08:30N 46°54' W 124°06'2 4.0
2017-Aug-16 07:57N 46°55' W 124°10'3 7.7
2017-Aug-16 07:30N 46°56' W 124°14'510.3
2017-Aug-16 07:01N 47°01' W 124°19'2010.5
2017-Aug-16 05:06N 47°17' W 124°36'110.7
2017-Aug-16 05:00N 47°17' W 124°37'510.5
2017-Aug-16 04:30N 47°22' W 124°42'510.5
2017-Aug-16 04:00N 47°26' W 124°47'810.5
2017-Aug-16 03:16N 47°32' W 124°54'2410.6
2017-Aug-16 01:02N 47°51' W 125°15'210.5
2017-Aug-16 00:51N 47°52' W 125°17'7 7.4
2017-Aug-15 23:52N 47°58' W 125°24'2 2.5
2017-Aug-15 23:08N 47°60' W 125°24'1 3.0
2017-Aug-15 22:52N 48°00' W 125°24'1 2.8
2017-Aug-15 22:25N 48°01' W 125°23'2 2.9
2017-Aug-15 21:53N 48°03' W 125°21'1 0.2
2017-Aug-15 17:21N 48°03' W 125°21'2 3.2
2017-Aug-15 16:51N 48°02' W 125°22'1 3.1
2017-Aug-15 16:29N 48°01' W 125°23'3 1.1
2017-Aug-15 14:11N 48°03' W 125°22'4 7.7
2017-Aug-15 13:43N 48°00' W 125°25'6 0.9
2017-Aug-15 06:50N 47°54' W 125°26'1 3.2
2017-Aug-15 06:30N 47°53' W 125°24'2 3.3
2017-Aug-15 05:50N 47°52' W 125°22'1 3.5
2017-Aug-15 05:30N 47°51' W 125°21'3 3.3
2017-Aug-15 04:28N 47°49' W 125°16'2 3.4
2017-Aug-15 03:59N 47°48' W 125°15'3 6.0
2017-Aug-15 03:30N 47°46' W 125°12'5 9.1
2017-Aug-15 03:00N 47°41' W 125°09'5 9.0
2017-Aug-15 02:29N 47°37' W 125°05'6 8.6
2017-Aug-15 01:44N 47°32' W 125°01'4 8.7
2017-Aug-15 01:16N 47°30' W 124°56'2 8.6
2017-Aug-15 01:00N 47°28' W 124°53'5 7.6
2017-Aug-15 00:25N 47°25' W 124°49'3 8.2
2017-Aug-15 00:00N 47°22' W 124°47'15 7.0
2017-Aug-14 21:51N 47°09' W 124°59'3 8.1
2017-Aug-14 21:30N 47°07' W 124°58'4 7.7
2017-Aug-14 20:58N 47°03' W 124°56'1 1.6
2017-Aug-14 20:04N 47°03' W 124°54'0 8.4
2017-Aug-14 20:01N 47°03' W 124°53'4 8.5
2017-Aug-14 19:30N 47°01' W 124°47'4 8.4
2017-Aug-14 19:00N 47°00' W 124°41'5 8.4
2017-Aug-14 18:27N 46°59' W 124°34'4 8.8
2017-Aug-14 18:01N 46°58' W 124°29'4 8.9
2017-Aug-14 17:30N 46°57' W 124°23'5 9.5
2017-Aug-14 17:00N 46°56' W 124°16'610.2
2017-Aug-14 16:27N 46°55' W 124°08'1 2.4
2017-Aug-14 16:00N 46°54' W 124°06'0 0.0
2017-Aug-14 15:30N 46°54' W 124°06'0 0.0
2017-Aug-14 15:00N 46°54' W 124°06'0 0.0
2017-Aug-14 14:29N 46°54' W 124°06'0 0.0
2017-Aug-14 14:00N 46°54' W 124°06'0 0.0
2017-Aug-14 13:30N 46°54' W 124°06'0 0.0
2017-Aug-14 13:00N 46°54' W 124°06'0 0.0
2017-Aug-14 12:29N 46°54' W 124°06'0 0.0
2017-Aug-14 11:57N 46°54' W 124°06'0 0.0
2017-Aug-14 11:26N 46°54' W 124°06'0 0.0
2017-Aug-14 11:00N 46°54' W 124°06'0 0.0
2017-Aug-14 10:30N 46°54' W 124°06'0 0.0
2017-Aug-14 10:00N 46°54' W 124°06'0 0.0
2017-Aug-14 09:30N 46°54' W 124°06'0 0.0
2017-Aug-14 09:00N 46°54' W 124°06'0 0.0
2017-Aug-14 08:30N 46°54' W 124°06'0 0.0
2017-Aug-14 08:00N 46°54' W 124°06'0 0.0
2017-Aug-14 07:28N 46°54' W 124°06'0 0.0
2017-Aug-14 07:00N 46°54' W 124°06'0 0.0
2017-Aug-14 06:30N 46°54' W 124°06'0 0.0
2017-Aug-14 06:00N 46°54' W 124°06'0 0.0
2017-Aug-14 05:20N 46°54' W 124°06'0 0.0
2017-Aug-14 04:59N 46°54' W 124°06'0 0.0
2017-Aug-14 04:30N 46°54' W 124°06'0 0.0
2017-Aug-14 03:54N 46°54' W 124°06'0 0.0
2017-Aug-14 03:30N 46°54' W 124°06'0 0.0
2017-Aug-14 02:55N 46°54' W 124°06'0 0.0
2017-Aug-14 01:35N 46°54' W 124°06'0 0.0
2017-Aug-14 01:29N 46°54' W 124°06'0 0.0
2017-Aug-14 00:58N 46°54' W 124°06'0 0.0
2017-Aug-14 00:29N 46°54' W 124°06'0 0.0
2017-Aug-13 23:59N 46°54' W 124°06'0 0.0
2017-Aug-13 23:29N 46°54' W 124°06'0 0.0
2017-Aug-13 21:25N 46°54' W 124°06'0 0.0
2017-Aug-13 16:03N 46°54' W 124°06'0 0.0
2017-Aug-13 15:55N 46°54' W 124°06'0 0.0
2017-Aug-13 12:24N 46°54' W 124°06'1 2.2
2017-Aug-13 11:59N 46°55' W 124°07'4 8.3
2017-Aug-13 11:31N 46°56' W 124°13'4 7.7
2017-Aug-13 11:00N 46°59' W 124°16'6 8.1
2017-Aug-13 10:19N 47°03' W 124°21'2 7.9
2017-Aug-13 10:00N 47°05' W 124°23'68 8.1
2017-Aug-13 01:31N 48°01' W 125°22'0 3.9
2017-Aug-13 01:30N 48°01' W 125°22'3 0.8
2017-Aug-12 21:57N 47°59' W 125°20'4 0.9
2017-Aug-12 17:36N 48°03' W 125°22'0 2.9
2017-Aug-12 17:30N 48°03' W 125°21'5 0.4
2017-Aug-12 07:29N 48°07' W 125°17'2 2.6
2017-Aug-12 06:39N 48°05' W 125°19'1 3.2
2017-Aug-12 06:26N 48°04' W 125°19'1 3.4
2017-Aug-12 06:00N 48°03' W 125°21'2 3.6
2017-Aug-12 05:29N 48°01' W 125°22'2 2.9
2017-Aug-12 04:50N 47°60' W 125°23'1 2.4
2017-Aug-12 04:28N 47°59' W 125°22'2 3.2
2017-Aug-12 03:42N 47°58' W 125°18'1 3.1
2017-Aug-12 03:30N 47°58' W 125°17'1 1.3
2017-Aug-12 02:50N 47°58' W 125°19'3 7.5
2017-Aug-12 02:23N 47°56' W 125°16'3 9.0
2017-Aug-12 02:00N 47°53' W 125°14'6 8.5
2017-Aug-12 01:15N 47°48' W 125°06'2 8.9
2017-Aug-12 01:00N 47°46' W 125°05'5 9.0
2017-Aug-12 00:30N 47°42' W 125°06'4 8.8
2017-Aug-12 00:00N 47°38' W 125°03'4 8.9
2017-Aug-11 23:30N 47°34' W 124°59'5 8.6
2017-Aug-11 22:59N 47°31' W 124°55'4 7.7
2017-Aug-11 22:30N 47°28' W 124°51'4 8.2
2017-Aug-11 22:00N 47°25' W 124°48'6 8.0
2017-Aug-11 21:16N 47°19' W 124°46'2 8.7
2017-Aug-11 21:00N 47°17' W 124°44'4 8.9
2017-Aug-11 20:30N 47°14' W 124°40'5 9.1
2017-Aug-11 20:00N 47°10' W 124°35'5 9.2
2017-Aug-11 19:30N 47°07' W 124°31'6 9.5
2017-Aug-11 18:55N 47°03' W 124°25'4 9.0
2017-Aug-11 18:27N 46°60' W 124°21'4 9.4
2017-Aug-11 18:01N 46°57' W 124°17'5 9.6
2017-Aug-11 17:30N 46°55' W 124°10'3 5.2
2017-Aug-11 17:00N 46°55' W 124°07'0 0.0
2017-Aug-11 16:30N 46°55' W 124°07'0 0.0
2017-Aug-11 14:47N 46°55' W 124°07'0 0.0
2017-Aug-11 14:23N 46°55' W 124°07'0 0.0
2017-Aug-11 13:29N 46°55' W 124°07'0 0.0
2017-Aug-11 13:00N 46°55' W 124°07'0 0.0
2017-Aug-11 12:25N 46°55' W 124°07'0 0.0
2017-Aug-11 11:59N 46°55' W 124°07'0 0.5
2017-Aug-11 11:30N 46°54' W 124°06'0 0.0
2017-Aug-11 11:00N 46°54' W 124°06'0 0.0
2017-Aug-11 10:30N 46°54' W 124°06'0 0.0
2017-Aug-11 10:00N 46°54' W 124°06'0 0.0
2017-Aug-11 09:30N 46°54' W 124°06'0 0.0
2017-Aug-11 09:00N 46°54' W 124°06'0 0.0
2017-Aug-11 08:30N 46°54' W 124°06'0 0.0
2017-Aug-11 08:00N 46°54' W 124°06'0 0.0
2017-Aug-11 07:31N 46°54' W 124°06'0 0.0
2017-Aug-11 07:00N 46°54' W 124°06'0 0.0
2017-Aug-11 06:31N 46°54' W 124°06'0 0.0
2017-Aug-11 05:28N 46°54' W 124°06'0 0.0
2017-Aug-11 05:00N 46°54' W 124°06'3 6.7
2017-Aug-11 04:30N 46°55' W 124°11'5 9.2
2017-Aug-11 04:00N 46°58' W 124°16'816.9
2017-Aug-11 03:30N 47°05' W 124°23'2 4.3
2017-Aug-11 03:01N 47°07' W 124°25'510.2
2017-Aug-11 02:29N 47°11' W 124°29'5 9.9
2017-Aug-11 01:57N 47°16' W 124°34'710.1
2017-Aug-11 01:14N 47°22' W 124°40'210.3
2017-Aug-11 01:00N 47°24' W 124°42'510.4
2017-Aug-11 00:29N 47°28' W 124°46'510.2
2017-Aug-11 00:00N 47°32' W 124°51'510.3
2017-Aug-10 23:30N 47°36' W 124°55'510.2
2017-Aug-10 23:01N 47°40' W 124°59'5 9.8
2017-Aug-10 22:31N 47°44' W 125°03'5 9.4
2017-Aug-10 22:01N 47°48' W 125°07'5 9.2
2017-Aug-10 21:30N 47°52' W 125°11'1 2.7
2017-Aug-10 20:58N 47°53' W 125°13'2 3.0
2017-Aug-10 20:20N 47°54' W 125°15'1 3.1
2017-Aug-10 20:00N 47°55' W 125°16'2 3.5
2017-Aug-10 19:30N 47°57' W 125°16'4 8.1
2017-Aug-10 19:00N 47°53' W 125°14'2 2.3
2017-Aug-10 18:16N 47°52' W 125°12'1 2.3
2017-Aug-10 18:00N 47°52' W 125°12'1 1.0
2017-Aug-10 17:22N 47°53' W 125°12'1 3.3
2017-Aug-10 16:59N 47°52' W 125°11'2 3.4
2017-Aug-10 16:28N 47°51' W 125°09'2 3.9
2017-Aug-10 15:59N 47°50' W 125°07'2 4.9
2017-Aug-10 15:30N 47°51' W 125°10'5 9.2
2017-Aug-10 15:00N 47°48' W 125°05'2 3.2
2017-Aug-10 14:31N 47°46' W 125°04'5 9.0
2017-Aug-10 13:56N 47°41' W 125°06'4 9.3
2017-Aug-10 13:31N 47°37' W 125°05'4 8.2
2017-Aug-10 13:00N 47°33' W 125°04'4 9.0
2017-Aug-10 12:31N 47°30' W 124°59'4 8.9
2017-Aug-10 12:01N 47°27' W 124°55'4 8.8
2017-Aug-10 11:30N 47°24' W 124°50'5 9.1
2017-Aug-10 11:00N 47°20' W 124°46'5 9.4
2017-Aug-10 10:30N 47°17' W 124°41'5 9.4
2017-Aug-10 10:00N 47°13' W 124°36'5 9.3
2017-Aug-10 09:31N 47°10' W 124°32'6 9.6
2017-Aug-10 08:53N 47°05' W 124°26'410.0
2017-Aug-10 08:30N 47°03' W 124°22'5 9.7
2017-Aug-10 08:00N 46°59' W 124°17'5 9.8
2017-Aug-10 07:30N 46°55' W 124°13'4 8.3
2017-Aug-10 07:00N 46°55' W 124°07'1 1.0
2017-Aug-10 06:30N 46°54' W 124°06'0 0.0
2017-Aug-10 06:00N 46°54' W 124°06'0 0.0
2017-Aug-10 05:16N 46°54' W 124°06'0 0.0
2017-Aug-10 04:40N 46°54' W 124°06'0 0.0
2017-Aug-10 04:31N 46°54' W 124°06'0 0.0
2017-Aug-10 03:58N 46°54' W 124°06'0 0.0
2017-Aug-10 03:30N 46°54' W 124°06'0 0.0
2017-Aug-10 03:00N 46°54' W 124°06'0 0.0
2017-Aug-10 02:07N 46°54' W 124°06'0 0.0
2017-Aug-10 02:00N 46°54' W 124°06'0 0.0
2017-Aug-10 01:14N 46°54' W 124°06'0 0.0
2017-Aug-10 01:01N 46°54' W 124°06'0 0.0
2017-Aug-10 00:24N 46°54' W 124°06'0 0.0
2017-Aug-10 00:00N 46°54' W 124°06'0 0.0
2017-Aug-09 23:24N 46°54' W 124°06'0 0.0
2017-Aug-09 23:00N 46°54' W 124°06'0 0.0
2017-Aug-09 22:18N 46°54' W 124°06'0 0.1
2017-Aug-09 21:59N 46°54' W 124°06'0 0.0
2017-Aug-09 21:30N 46°54' W 124°06'0 0.0
2017-Aug-09 21:00N 46°54' W 124°06'0 0.0
2017-Aug-09 20:28N 46°54' W 124°06'0 0.0
2017-Aug-09 20:00N 46°54' W 124°06'0 0.0
2017-Aug-09 19:30N 46°54' W 124°06'0 0.0
2017-Aug-09 19:00N 46°54' W 124°06'0 0.0
2017-Aug-09 18:28N 46°54' W 124°06'0 0.0
2017-Aug-09 18:00N 46°54' W 124°06'0 0.0
2017-Aug-09 17:30N 46°54' W 124°06'0 0.0
2017-Aug-09 17:00N 46°54' W 124°06'0 0.0
2017-Aug-09 16:03N 46°54' W 124°06'0 0.0
2017-Aug-09 15:58N 46°54' W 124°06'0 0.0
2017-Aug-09 15:30N 46°54' W 124°06'0 0.0
2017-Aug-09 14:46N 46°54' W 124°06'0 0.0
2017-Aug-09 14:29N 46°54' W 124°06'0 0.0
2017-Aug-09 13:59N 46°54' W 124°06'0 0.0
2017-Aug-09 13:30N 46°54' W 124°06'0 0.0
2017-Aug-09 13:00N 46°54' W 124°06'0 0.0
2017-Aug-09 12:30N 46°54' W 124°06'0 0.0
2017-Aug-09 11:56N 46°54' W 124°06'0 0.0
2017-Aug-09 11:30N 46°54' W 124°06'0 0.0
2017-Aug-09 11:00N 46°54' W 124°06'0 0.0
2017-Aug-09 10:30N 46°54' W 124°06'0 0.0
2017-Aug-09 10:00N 46°54' W 124°06'0 0.0
2017-Aug-09 09:30N 46°54' W 124°06'0 0.0
2017-Aug-09 09:00N 46°54' W 124°06'0 0.0
2017-Aug-09 08:24N 46°54' W 124°06'0 0.0
2017-Aug-09 07:41N 46°54' W 124°06'0 0.0
2017-Aug-09 06:59N 46°54' W 124°06'0 0.0
2017-Aug-09 05:38N 46°54' W 124°06'0 0.0
2017-Aug-09 05:26N 46°54' W 124°06'0 0.0
2017-Aug-09 04:56N 46°54' W 124°06'1 1.3
2017-Aug-09 04:30N 46°55' W 124°07'510.4
2017-Aug-09 04:00N 46°57' W 124°14'611.2
2017-Aug-09 03:31N 47°02' W 124°18'611.1
2017-Aug-09 03:01N 47°06' W 124°22'611.2
2017-Aug-09 02:29N 47°11' W 124°27'3810.7
2017-Aug-08 22:55N 47°44' W 124°56'610.8
2017-Aug-08 22:24N 47°49' W 125°01'19 2.3
2017-Aug-08 13:59N 48°04' W 125°18'2 4.7
2017-Aug-08 13:29N 48°03' W 125°15'  
Track history (hours):
 
Tides and Currents Weather Stations Pressure Air Temp Water Temp Dewpoint Dewpoint Depression Visibility Wind Speed Wind Dir Waves Ship Positions

Arctic Fury

Owner: Fury Group Inc, Seattle, WA. More information available from US FCC via Universal Licensing System and Coast Guard Vessel Documentation Center.

Last reported at 2017-Aug-18 12:30 UTC. Time now 2017-Aug-18 12:48 UTC.
Position N 46°55' W 124°09'.

Length 43 m; draft 5 m.

Type: Fishing. MMSI: 366468000.

Date/timePositionNaut miles runAvg speedWind from/ knotsBaromVisibWave heightAir tempDewpointWater temp
2017-Aug-18 12:30N 46°55' W 124°09'2 3.6
2017-Aug-18 11:56N 46°54' W 124°06'0 0.0
2017-Aug-18 11:24N 46°54' W 124°06'0 0.0
2017-Aug-18 11:00N 46°54' W 124°06'0 0.0
2017-Aug-18 10:25N 46°54' W 124°06'0 0.0
2017-Aug-18 10:00N 46°54' W 124°06'0 0.0
2017-Aug-18 09:25N 46°54' W 124°06'0 0.0
2017-Aug-18 09:00N 46°54' W 124°06'0 0.0
2017-Aug-18 08:30N 46°54' W 124°06'0 0.0
2017-Aug-18 08:00N 46°54' W 124°06'0 0.0
2017-Aug-18 07:28N 46°54' W 124°06'0 0.0
2017-Aug-18 07:00N 46°54' W 124°06'0 0.0
2017-Aug-18 06:30N 46°54' W 124°06'0 0.0
2017-Aug-18 06:00N 46°54' W 124°06'0 0.0
2017-Aug-18 05:30N 46°54' W 124°06'0 0.0
2017-Aug-18 05:00N 46°54' W 124°06'0 0.0
2017-Aug-18 04:30N 46°54' W 124°06'0 0.0
2017-Aug-18 03:57N 46°54' W 124°06'0 0.0
2017-Aug-18 03:30N 46°54' W 124°06'0 0.0
2017-Aug-18 03:00N 46°54' W 124°06'0 0.0
2017-Aug-18 02:29N 46°54' W 124°06'0 0.0
2017-Aug-18 01:59N 46°54' W 124°06'0 0.0
2017-Aug-18 01:30N 46°54' W 124°06'0 0.0
2017-Aug-18 00:59N 46°54' W 124°06'0 0.1
2017-Aug-18 00:29N 46°54' W 124°06'0 0.0
2017-Aug-17 21:26N 46°54' W 124°06'2 3.7
2017-Aug-17 20:55N 46°55' W 124°09'2 4.6
2017-Aug-17 20:30N 46°55' W 124°06'0 0.5
2017-Aug-17 19:51N 46°54' W 124°06'0 0.0
2017-Aug-17 19:07N 46°54' W 124°06'0 0.0
2017-Aug-17 18:45N 46°54' W 124°06'0 0.0
2017-Aug-17 18:24N 46°54' W 124°06'0 0.0
2017-Aug-17 17:58N 46°54' W 124°06'0 0.0
2017-Aug-17 16:32N 46°54' W 124°06'0 0.0
2017-Aug-17 16:28N 46°54' W 124°06'0 0.0
2017-Aug-17 15:45N 46°54' W 124°06'0 0.0
2017-Aug-17 14:31N 46°54' W 124°06'0 0.0
2017-Aug-17 14:09N 46°54' W 124°06'0 0.0
2017-Aug-17 13:58N 46°54' W 124°06'0 0.0
2017-Aug-17 13:23N 46°54' W 124°06'0 0.0
2017-Aug-17 12:56N 46°54' W 124°06'0 0.0
2017-Aug-17 11:51N 46°54' W 124°06'0 0.0
2017-Aug-17 11:28N 46°54' W 124°06'0 0.0
2017-Aug-17 10:49N 46°54' W 124°06'0 0.0
2017-Aug-17 07:56N 46°54' W 124°06'2 3.4
2017-Aug-17 07:29N 46°55' W 124°09'6 7.1
2017-Aug-17 06:40N 46°51' W 124°15'1 8.9
2017-Aug-17 06:30N 46°50' W 124°16'4 8.9
2017-Aug-17 06:00N 46°46' W 124°20'5 9.3
2017-Aug-17 05:31N 46°42' W 124°24'5 9.5
2017-Aug-17 05:01N 46°39' W 124°28'4 8.5
2017-Aug-17 04:30N 46°35' W 124°31'2 3.0
2017-Aug-17 04:01N 46°34' W 124°33'1 2.7
2017-Aug-17 03:30N 46°34' W 124°35'2 3.1
2017-Aug-17 03:00N 46°34' W 124°37'2 3.4
2017-Aug-17 02:30N 46°36' W 124°38'2 3.1
2017-Aug-17 02:01N 46°37' W 124°39'2 3.3
2017-Aug-17 01:30N 46°38' W 124°41'1 2.7
2017-Aug-17 01:01N 46°39' W 124°42'5 9.5
2017-Aug-17 00:30N 46°36' W 124°38'2 4.0
2017-Aug-17 00:00N 46°34' W 124°37'1 2.7
2017-Aug-16 23:30N 46°35' W 124°37'2 3.0
2017-Aug-16 23:00N 46°37' W 124°38'2 3.1
2017-Aug-16 22:30N 46°38' W 124°40'2 3.4
2017-Aug-16 22:00N 46°39' W 124°42'1 1.3
2017-Aug-16 21:30N 46°38' W 124°41'3 5.3
2017-Aug-16 21:00N 46°38' W 124°37'5 7.1
2017-Aug-16 20:16N 46°41' W 124°31'2 9.2
2017-Aug-16 20:01N 46°42' W 124°29'5 9.4
2017-Aug-16 19:30N 46°46' W 124°24'5 9.4
2017-Aug-16 19:01N 46°49' W 124°20'510.1
2017-Aug-16 18:30N 46°53' W 124°15'510.7
2017-Aug-16 18:00N 46°55' W 124°07'1 1.3
2017-Aug-16 17:19N 46°54' W 124°06'0 0.0
2017-Aug-16 17:00N 46°54' W 124°06'0 0.0
2017-Aug-16 16:26N 46°54' W 124°06'0 0.0
2017-Aug-16 16:00N 46°54' W 124°06'0 0.0
2017-Aug-16 15:30N 46°54' W 124°06'0 0.0
2017-Aug-16 15:00N 46°54' W 124°06'0 0.0
2017-Aug-16 14:29N 46°54' W 124°06'0 0.0
2017-Aug-16 14:00N 46°54' W 124°06'0 0.0
2017-Aug-16 13:30N 46°54' W 124°06'0 0.0
2017-Aug-16 13:00N 46°54' W 124°06'0 0.0
2017-Aug-16 12:30N 46°54' W 124°06'0 0.0
2017-Aug-16 12:00N 46°54' W 124°06'0 0.0
2017-Aug-16 11:25N 46°54' W 124°06'0 0.0
2017-Aug-16 10:56N 46°54' W 124°06'0 0.0
2017-Aug-16 10:07N 46°54' W 124°06'0 0.0
2017-Aug-16 09:56N 46°54' W 124°06'0 0.0
2017-Aug-16 09:30N 46°54' W 124°06'0 0.0
2017-Aug-16 08:59N 46°54' W 124°06'0 0.0
2017-Aug-16 08:30N 46°54' W 124°06'2 4.0
2017-Aug-16 07:57N 46°55' W 124°10'3 7.7
2017-Aug-16 07:30N 46°56' W 124°14'510.3
2017-Aug-16 07:01N 47°01' W 124°19'2010.5
2017-Aug-16 05:06N 47°17' W 124°36'110.7
2017-Aug-16 05:00N 47°17' W 124°37'510.5
2017-Aug-16 04:30N 47°22' W 124°42'510.5
2017-Aug-16 04:00N 47°26' W 124°47'810.5
2017-Aug-16 03:16N 47°32' W 124°54'2410.6
2017-Aug-16 01:02N 47°51' W 125°15'210.5
2017-Aug-16 00:51N 47°52' W 125°17'7 7.4
2017-Aug-15 23:52N 47°58' W 125°24'2 2.5
2017-Aug-15 23:08N 47°60' W 125°24'1 3.0
2017-Aug-15 22:52N 48°00' W 125°24'1 2.8
2017-Aug-15 22:25N 48°01' W 125°23'2 2.9
2017-Aug-15 21:53N 48°03' W 125°21'1 0.2
2017-Aug-15 17:21N 48°03' W 125°21'2 3.2
2017-Aug-15 16:51N 48°02' W 125°22'1 3.1
2017-Aug-15 16:29N 48°01' W 125°23'3 1.1
2017-Aug-15 14:11N 48°03' W 125°22'4 7.7
2017-Aug-15 13:43N 48°00' W 125°25'6 0.9
2017-Aug-15 06:50N 47°54' W 125°26'1 3.2
2017-Aug-15 06:30N 47°53' W 125°24'2 3.3
2017-Aug-15 05:50N 47°52' W 125°22'1 3.5
2017-Aug-15 05:30N 47°51' W 125°21'3 3.3
2017-Aug-15 04:28N 47°49' W 125°16'2 3.4
2017-Aug-15 03:59N 47°48' W 125°15'3 6.0
2017-Aug-15 03:30N 47°46' W 125°12'5 9.1
2017-Aug-15 03:00N 47°41' W 125°09'5 9.0
2017-Aug-15 02:29N 47°37' W 125°05'6 8.6
2017-Aug-15 01:44N 47°32' W 125°01'4 8.7
2017-Aug-15 01:16N 47°30' W 124°56'2 8.6
2017-Aug-15 01:00N 47°28' W 124°53'5 7.6
2017-Aug-15 00:25N 47°25' W 124°49'3 8.2
2017-Aug-15 00:00N 47°22' W 124°47'15 7.0
2017-Aug-14 21:51N 47°09' W 124°59'3 8.1
2017-Aug-14 21:30N 47°07' W 124°58'4 7.7
2017-Aug-14 20:58N 47°03' W 124°56'1 1.6
2017-Aug-14 20:04N 47°03' W 124°54'0 8.4
2017-Aug-14 20:01N 47°03' W 124°53'4 8.5
2017-Aug-14 19:30N 47°01' W 124°47'4 8.4
2017-Aug-14 19:00N 47°00' W 124°41'5 8.4
2017-Aug-14 18:27N 46°59' W 124°34'4 8.8
2017-Aug-14 18:01N 46°58' W 124°29'4 8.9
2017-Aug-14 17:30N 46°57' W 124°23'5 9.5
2017-Aug-14 17:00N 46°56' W 124°16'610.2
2017-Aug-14 16:27N 46°55' W 124°08'1 2.4
2017-Aug-14 16:00N 46°54' W 124°06'0 0.0
2017-Aug-14 15:30N 46°54' W 124°06'0 0.0
2017-Aug-14 15:00N 46°54' W 124°06'0 0.0
2017-Aug-14 14:29N 46°54' W 124°06'0 0.0
2017-Aug-14 14:00N 46°54' W 124°06'0 0.0
2017-Aug-14 13:30N 46°54' W 124°06'0 0.0
2017-Aug-14 13:00N 46°54' W 124°06'0 0.0
2017-Aug-14 12:29N 46°54' W 124°06'0 0.0
2017-Aug-14 11:57N 46°54' W 124°06'0 0.0
2017-Aug-14 11:26N 46°54' W 124°06'0 0.0
2017-Aug-14 11:00N 46°54' W 124°06'0 0.0
2017-Aug-14 10:30N 46°54' W 124°06'0 0.0
2017-Aug-14 10:00N 46°54' W 124°06'0 0.0
2017-Aug-14 09:30N 46°54' W 124°06'0 0.0
2017-Aug-14 09:00N 46°54' W 124°06'0 0.0
2017-Aug-14 08:30N 46°54' W 124°06'0 0.0
2017-Aug-14 08:00N 46°54' W 124°06'0 0.0
2017-Aug-14 07:28N 46°54' W 124°06'0 0.0
2017-Aug-14 07:00N 46°54' W 124°06'0 0.0
2017-Aug-14 06:30N 46°54' W 124°06'0 0.0
2017-Aug-14 06:00N 46°54' W 124°06'0 0.0
2017-Aug-14 05:20N 46°54' W 124°06'0 0.0
2017-Aug-14 04:59N 46°54' W 124°06'0 0.0
2017-Aug-14 04:30N 46°54' W 124°06'0 0.0
2017-Aug-14 03:54N 46°54' W 124°06'0 0.0
2017-Aug-14 03:30N 46°54' W 124°06'0 0.0
2017-Aug-14 02:55N 46°54' W 124°06'0 0.0
2017-Aug-14 01:35N 46°54' W 124°06'0 0.0
2017-Aug-14 01:29N 46°54' W 124°06'0 0.0
2017-Aug-14 00:58N 46°54' W 124°06'0 0.0
2017-Aug-14 00:29N 46°54' W 124°06'0 0.0
2017-Aug-13 23:59N 46°54' W 124°06'0 0.0
2017-Aug-13 23:29N 46°54' W 124°06'0 0.0
2017-Aug-13 21:25N 46°54' W 124°06'0 0.0
2017-Aug-13 16:03N 46°54' W 124°06'0 0.0
2017-Aug-13 15:55N 46°54' W 124°06'0 0.0
2017-Aug-13 12:24N 46°54' W 124°06'1 2.2
2017-Aug-13 11:59N 46°55' W 124°07'4 8.3
2017-Aug-13 11:31N 46°56' W 124°13'4 7.7
2017-Aug-13 11:00N 46°59' W 124°16'6 8.1
2017-Aug-13 10:19N 47°03' W 124°21'2 7.9
2017-Aug-13 10:00N 47°05' W 124°23'68 8.1
2017-Aug-13 01:31N 48°01' W 125°22'0 3.9
2017-Aug-13 01:30N 48°01' W 125°22'3 0.8
2017-Aug-12 21:57N 47°59' W 125°20'4 0.9
2017-Aug-12 17:36N 48°03' W 125°22'0 2.9
2017-Aug-12 17:30N 48°03' W 125°21'5 0.4
2017-Aug-12 07:29N 48°07' W 125°17'2 2.6
2017-Aug-12 06:39N 48°05' W 125°19'1 3.2
2017-Aug-12 06:26N 48°04' W 125°19'1 3.4
2017-Aug-12 06:00N 48°03' W 125°21'2 3.6
2017-Aug-12 05:29N 48°01' W 125°22'2 2.9
2017-Aug-12 04:50N 47°60' W 125°23'1 2.4
2017-Aug-12 04:28N 47°59' W 125°22'2 3.2
2017-Aug-12 03:42N 47°58' W 125°18'1 3.1
2017-Aug-12 03:30N 47°58' W 125°17'1 1.3
2017-Aug-12 02:50N 47°58' W 125°19'3 7.5
2017-Aug-12 02:23N 47°56' W 125°16'3 9.0
2017-Aug-12 02:00N 47°53' W 125°14'6 8.5
2017-Aug-12 01:15N 47°48' W 125°06'2 8.9
2017-Aug-12 01:00N 47°46' W 125°05'5 9.0
2017-Aug-12 00:30N 47°42' W 125°06'4 8.8
2017-Aug-12 00:00N 47°38' W 125°03'4 8.9
2017-Aug-11 23:30N 47°34' W 124°59'5 8.6
2017-Aug-11 22:59N 47°31' W 124°55'4 7.7
2017-Aug-11 22:30N 47°28' W 124°51'4 8.2
2017-Aug-11 22:00N 47°25' W 124°48'6 8.0
2017-Aug-11 21:16N 47°19' W 124°46'2 8.7
2017-Aug-11 21:00N 47°17' W 124°44'4 8.9
2017-Aug-11 20:30N 47°14' W 124°40'5 9.1
2017-Aug-11 20:00N 47°10' W 124°35'5 9.2
2017-Aug-11 19:30N 47°07' W 124°31'6 9.5
2017-Aug-11 18:55N 47°03' W 124°25'4 9.0
2017-Aug-11 18:27N 46°60' W 124°21'4 9.4
2017-Aug-11 18:01N 46°57' W 124°17'5 9.6
2017-Aug-11 17:30N 46°55' W 124°10'3 5.2
2017-Aug-11 17:00N 46°55' W 124°07'0 0.0
2017-Aug-11 16:30N 46°55' W 124°07'0 0.0
2017-Aug-11 14:47N 46°55' W 124°07'0 0.0
2017-Aug-11 14:23N 46°55' W 124°07'0 0.0
2017-Aug-11 13:29N 46°55' W 124°07'0 0.0
2017-Aug-11 13:00N 46°55' W 124°07'0 0.0
2017-Aug-11 12:25N 46°55' W 124°07'0 0.0
2017-Aug-11 11:59N 46°55' W 124°07'0 0.5
2017-Aug-11 11:30N 46°54' W 124°06'0 0.0
2017-Aug-11 11:00N 46°54' W 124°06'0 0.0
2017-Aug-11 10:30N 46°54' W 124°06'0 0.0
2017-Aug-11 10:00N 46°54' W 124°06'0 0.0
2017-Aug-11 09:30N 46°54' W 124°06'0 0.0
2017-Aug-11 09:00N 46°54' W 124°06'0 0.0
2017-Aug-11 08:30N 46°54' W 124°06'0 0.0
2017-Aug-11 08:00N 46°54' W 124°06'0 0.0
2017-Aug-11 07:31N 46°54' W 124°06'0 0.0
2017-Aug-11 07:00N 46°54' W 124°06'0 0.0
2017-Aug-11 06:31N 46°54' W 124°06'0 0.0
2017-Aug-11 05:28N 46°54' W 124°06'0 0.0
2017-Aug-11 05:00N 46°54' W 124°06'3 6.7
2017-Aug-11 04:30N 46°55' W 124°11'5 9.2
2017-Aug-11 04:00N 46°58' W 124°16'816.9
2017-Aug-11 03:30N 47°05' W 124°23'2 4.3
2017-Aug-11 03:01N 47°07' W 124°25'510.2
2017-Aug-11 02:29N 47°11' W 124°29'5 9.9
2017-Aug-11 01:57N 47°16' W 124°34'710.1
2017-Aug-11 01:14N 47°22' W 124°40'210.3
2017-Aug-11 01:00N 47°24' W 124°42'510.4
2017-Aug-11 00:29N 47°28' W 124°46'510.2
2017-Aug-11 00:00N 47°32' W 124°51'510.3
2017-Aug-10 23:30N 47°36' W 124°55'510.2
2017-Aug-10 23:01N 47°40' W 124°59'5 9.8
2017-Aug-10 22:31N 47°44' W 125°03'5 9.4
2017-Aug-10 22:01N 47°48' W 125°07'5 9.2
2017-Aug-10 21:30N 47°52' W 125°11'1 2.7
2017-Aug-10 20:58N 47°53' W 125°13'2 3.0
2017-Aug-10 20:20N 47°54' W 125°15'1 3.1
2017-Aug-10 20:00N 47°55' W 125°16'2 3.5
2017-Aug-10 19:30N 47°57' W 125°16'4 8.1
2017-Aug-10 19:00N 47°53' W 125°14'2 2.3
2017-Aug-10 18:16N 47°52' W 125°12'1 2.3
2017-Aug-10 18:00N 47°52' W 125°12'1 1.0
2017-Aug-10 17:22N 47°53' W 125°12'1 3.3
2017-Aug-10 16:59N 47°52' W 125°11'2 3.4
2017-Aug-10 16:28N 47°51' W 125°09'2 3.9
2017-Aug-10 15:59N 47°50' W 125°07'2 4.9
2017-Aug-10 15:30N 47°51' W 125°10'5 9.2
2017-Aug-10 15:00N 47°48' W 125°05'2 3.2
2017-Aug-10 14:31N 47°46' W 125°04'5 9.0
2017-Aug-10 13:56N 47°41' W 125°06'4 9.3
2017-Aug-10 13:31N 47°37' W 125°05'4 8.2
2017-Aug-10 13:00N 47°33' W 125°04'4 9.0
2017-Aug-10 12:31N 47°30' W 124°59'4 8.9
2017-Aug-10 12:01N 47°27' W 124°55'4 8.8
2017-Aug-10 11:30N 47°24' W 124°50'5 9.1
2017-Aug-10 11:00N 47°20' W 124°46'5 9.4
2017-Aug-10 10:30N 47°17' W 124°41'5 9.4
2017-Aug-10 10:00N 47°13' W 124°36'5 9.3
2017-Aug-10 09:31N 47°10' W 124°32'6 9.6
2017-Aug-10 08:53N 47°05' W 124°26'410.0
2017-Aug-10 08:30N 47°03' W 124°22'5 9.7
2017-Aug-10 08:00N 46°59' W 124°17'5 9.8
2017-Aug-10 07:30N 46°55' W 124°13'4 8.3
2017-Aug-10 07:00N 46°55' W 124°07'1 1.0
2017-Aug-10 06:30N 46°54' W 124°06'0 0.0
2017-Aug-10 06:00N 46°54' W 124°06'0 0.0
2017-Aug-10 05:16N 46°54' W 124°06'0 0.0
2017-Aug-10 04:40N 46°54' W 124°06'0 0.0
2017-Aug-10 04:31N 46°54' W 124°06'0 0.0
2017-Aug-10 03:58N 46°54' W 124°06'0 0.0
2017-Aug-10 03:30N 46°54' W 124°06'0 0.0
2017-Aug-10 03:00N 46°54' W 124°06'0 0.0
2017-Aug-10 02:07N 46°54' W 124°06'0 0.0
2017-Aug-10 02:00N 46°54' W 124°06'0 0.0
2017-Aug-10 01:14N 46°54' W 124°06'0 0.0
2017-Aug-10 01:01N 46°54' W 124°06'0 0.0
2017-Aug-10 00:24N 46°54' W 124°06'0 0.0
2017-Aug-10 00:00N 46°54' W 124°06'0 0.0
2017-Aug-09 23:24N 46°54' W 124°06'0 0.0
2017-Aug-09 23:00N 46°54' W 124°06'0 0.0
2017-Aug-09 22:18N 46°54' W 124°06'0 0.1
2017-Aug-09 21:59N 46°54' W 124°06'0 0.0
2017-Aug-09 21:30N 46°54' W 124°06'0 0.0
2017-Aug-09 21:00N 46°54' W 124°06'0 0.0
2017-Aug-09 20:28N 46°54' W 124°06'0 0.0
2017-Aug-09 20:00N 46°54' W 124°06'0 0.0
2017-Aug-09 19:30N 46°54' W 124°06'0 0.0
2017-Aug-09 19:00N 46°54' W 124°06'0 0.0
2017-Aug-09 18:28N 46°54' W 124°06'0 0.0
2017-Aug-09 18:00N 46°54' W 124°06'0 0.0
2017-Aug-09 17:30N 46°54' W 124°06'0 0.0
2017-Aug-09 17:00N 46°54' W 124°06'0 0.0
2017-Aug-09 16:03N 46°54' W 124°06'0 0.0
2017-Aug-09 15:58N 46°54' W 124°06'0 0.0
2017-Aug-09 15:30N 46°54' W 124°06'0 0.0
2017-Aug-09 14:46N 46°54' W 124°06'0 0.0
2017-Aug-09 14:29N 46°54' W 124°06'0 0.0
2017-Aug-09 13:59N 46°54' W 124°06'0 0.0
2017-Aug-09 13:30N 46°54' W 124°06'0 0.0
2017-Aug-09 13:00N 46°54' W 124°06'0 0.0
2017-Aug-09 12:30N 46°54' W 124°06'0 0.0
2017-Aug-09 11:56N 46°54' W 124°06'0 0.0
2017-Aug-09 11:30N 46°54' W 124°06'0 0.0
2017-Aug-09 11:00N 46°54' W 124°06'0 0.0
2017-Aug-09 10:30N 46°54' W 124°06'0 0.0
2017-Aug-09 10:00N 46°54' W 124°06'0 0.0
2017-Aug-09 09:30N 46°54' W 124°06'0 0.0
2017-Aug-09 09:00N 46°54' W 124°06'0 0.0
2017-Aug-09 08:24N 46°54' W 124°06'0 0.0
2017-Aug-09 07:41N 46°54' W 124°06'0 0.0
2017-Aug-09 06:59N 46°54' W 124°06'0 0.0
2017-Aug-09 05:38N 46°54' W 124°06'0 0.0
2017-Aug-09 05:26N 46°54' W 124°06'0 0.0
2017-Aug-09 04:56N 46°54' W 124°06'1 1.3
2017-Aug-09 04:30N 46°55' W 124°07'510.4
2017-Aug-09 04:00N 46°57' W 124°14'611.2
2017-Aug-09 03:31N 47°02' W 124°18'611.1
2017-Aug-09 03:01N 47°06' W 124°22'611.2
2017-Aug-09 02:29N 47°11' W 124°27'3810.7
2017-Aug-08 22:55N 47°44' W 124°56'610.8
2017-Aug-08 22:24N 47°49' W 125°01'19 2.3
2017-Aug-08 13:59N 48°04' W 125°18'2 4.7
2017-Aug-08 13:29N 48°03' W 125°15'  

Dump ship's entire track history